Time;durP1;ratioP1;P1;durP2;ratioP2;P2;SDS_P1;SDS_P2;PMS_P1;PMS_P2;Temp;Humidity;BMP_temperature;BMP_pressure;BME280_temperature;BME280_humidity;BME280_pressure;Samples;Min_cycle;Max_cycle;Signal;HPM_P1;HPM_P2
2023/09/11 00:01:15;;;;;;;8.32;3.20;;;;;;;17.78;57.82;94982.75;4188979;28;20056;-74
2023/09/11 00:03:16;;;;;;;9.20;3.15;;;;;;;17.69;57.75;94979.44;4193597;28;20102;-73
2023/09/11 00:05:18;;;;;;;12.30;3.90;;;;;;;17.65;58.14;94978.22;4197192;28;20056;-76
2023/09/11 00:07:21;;;;;;;8.35;3.15;;;;;;;17.76;58.04;94987.44;4172738;28;20571;-74
2023/09/11 00:09:23;;;;;;;8.90;2.80;;;;;;;17.89;57.72;94984.88;4195254;28;20055;-76
2023/09/11 00:11:24;;;;;;;8.90;2.70;;;;;;;18.01;57.28;94987.78;4192023;28;20052;-75
2023/09/11 00:13:27;;;;;;;6.68;3.10;;;;;;;18.11;56.77;94988.25;4184293;28;20200;-75
2023/09/11 00:15:32;;;;;;;5.60;2.78;;;;;;;18.17;56.76;94990.06;4175470;28;20443;-74
2023/09/11 00:17:34;;;;;;;10.02;2.58;;;;;;;18.21;56.58;94988.66;4186487;28;20041;-74
2023/09/11 00:19:35;;;;;;;4.57;2.78;;;;;;;18.26;56.48;94995.22;4194977;28;20064;-74
2023/09/11 00:21:37;;;;;;;8.70;3.00;;;;;;;18.22;56.76;94989.50;4195990;28;20055;-74
2023/09/11 00:23:39;;;;;;;9.63;2.65;;;;;;;18.20;56.60;94995.00;4183601;28;20049;-74
2023/09/11 00:25:41;;;;;;;5.97;2.88;;;;;;;18.13;56.88;94982.72;4187066;28;20098;-73
2023/09/11 00:27:43;;;;;;;6.55;2.83;;;;;;;17.99;57.10;94985.31;4189950;28;20045;-76
2023/09/11 00:29:45;;;;;;;7.70;2.83;;;;;;;17.99;57.43;94979.22;4184940;28;20052;-72
2023/09/11 00:31:47;;;;;;;5.55;3.10;;;;;;;18.06;57.28;94987.19;4184916;28;20045;-75
2023/09/11 00:33:49;;;;;;;5.22;2.60;;;;;;;18.10;57.22;94977.81;4170624;28;20052;-75
2023/09/11 00:35:50;;;;;;;5.65;2.97;;;;;;;18.15;57.20;94983.34;4193968;28;20070;-74
2023/09/11 00:37:52;;;;;;;8.02;2.40;;;;;;;18.18;57.14;94978.47;4197605;28;20525;-75
2023/09/11 00:39:54;;;;;;;6.97;2.50;;;;;;;18.22;56.92;94984.19;4181045;28;20049;-75
2023/09/11 00:41:56;;;;;;;7.03;2.13;;;;;;;18.24;56.67;94981.31;4186162;28;20364;-76
2023/09/11 00:43:58;;;;;;;6.28;2.75;;;;;;;18.28;56.73;94987.88;4174622;28;20049;-74
2023/09/11 00:46:00;;;;;;;7.05;2.60;;;;;;;18.21;56.99;94990.50;4194066;28;20468;-75
2023/09/11 00:48:03;;;;;;;5.38;2.47;;;;;;;18.15;57.03;94980.69;4173310;28;20104;-76
2023/09/11 00:50:05;;;;;;;4.50;2.20;;;;;;;18.12;57.24;94976.59;4195602;28;20103;-76
2023/09/11 00:52:07;;;;;;;8.20;2.45;;;;;;;18.04;57.08;94978.63;4173854;28;20072;-74
2023/09/11 00:54:09;;;;;;;6.70;2.83;;;;;;;18.03;57.34;94982.28;4178067;28;20144;-74
2023/09/11 00:56:11;;;;;;;4.65;2.67;;;;;;;18.08;57.29;94985.16;4192989;28;20449;-76
2023/09/11 00:58:16;;;;;;;5.90;2.58;;;;;;;18.11;57.35;94976.78;4191435;28;20074;-75
2023/09/11 01:00:18;;;;;;;4.60;2.42;;;;;;;18.14;57.04;94981.72;4175575;28;20072;-74
2023/09/11 01:02:21;;;;;;;6.78;2.72;;;;;;;18.16;57.11;94974.38;4159679;28;20049;-76
2023/09/11 01:04:23;;;;;;;5.85;2.60;;;;;;;18.17;57.09;94973.34;4193082;28;20048;-75
2023/09/11 01:06:25;;;;;;;6.50;2.50;;;;;;;18.16;56.88;94977.03;4174912;28;20200;-75
2023/09/11 01:08:27;;;;;;;6.93;2.88;;;;;;;18.11;57.24;94971.50;4194243;28;20049;-75
2023/09/11 01:10:29;;;;;;;4.88;2.25;;;;;;;18.13;57.20;94974.75;4181643;28;20060;-73
2023/09/11 01:12:32;;;;;;;6.25;2.53;;;;;;;18.14;56.88;94971.91;4191783;28;20052;-75
2023/09/11 01:14:35;;;;;;;8.52;2.40;;;;;;;18.16;57.13;94985.00;4193187;28;20076;-74
2023/09/11 01:17:07;;;;;;;5.55;2.65;;;;;;;18.11;57.39;94974.16;4196583;28;20295;-73
2023/09/11 01:19:11;;;;;;;9.90;2.78;;;;;;;17.93;57.60;94975.50;4199517;28;20048;-73
2023/09/11 01:21:26;;;;;;;7.97;2.30;;;;;;;17.91;57.85;94982.03;4179499;28;20472;-74
2023/09/11 01:23:35;;;;;;;7.00;2.35;;;;;;;17.92;57.85;94973.88;4155693;28;20041;-75
2023/09/11 01:26:03;;;;;;;5.90;2.67;;;;;;;17.97;57.83;94978.59;4185924;28;20091;-74
2023/09/11 01:28:22;;;;;;;4.57;2.47;;;;;;;17.90;57.75;94972.47;4194542;28;20156;-76
2023/09/11 01:30:25;;;;;;;6.03;2.40;;;;;;;17.86;57.86;94974.69;4188915;28;20064;-75
2023/09/11 01:32:28;;;;;;;8.05;2.85;;;;;;;17.85;57.82;94969.56;4185558;28;20639;-76
2023/09/11 01:34:30;;;;;;;8.10;2.40;;;;;;;17.83;57.93;94976.88;4166119;28;20077;-76
2023/09/11 01:36:32;;;;;;;10.25;2.20;;;;;;;17.79;57.98;94979.09;4189256;28;20759;-74
2023/09/11 01:38:34;;;;;;;5.18;2.35;;;;;;;17.79;58.20;94971.97;4166905;28;20041;-75
2023/09/11 01:40:36;;;;;;;5.07;2.40;;;;;;;17.81;57.97;94975.25;4198889;28;20040;-74
2023/09/11 01:42:46;;;;;;;6.32;2.13;;;;;;;17.78;57.96;94972.97;4189011;28;20417;-74
2023/09/11 01:44:50;;;;;;;8.23;2.70;;;;;;;17.79;57.88;94973.81;4171953;28;20083;-76
2023/09/11 01:46:53;;;;;;;7.55;2.78;;;;;;;17.85;57.53;94962.44;4169975;28;20105;-76
2023/09/11 01:48:56;;;;;;;5.15;2.67;;;;;;;17.87;57.63;94970.19;4174013;28;20049;-74
2023/09/11 01:50:58;;;;;;;10.32;2.50;;;;;;;17.76;57.75;94963.59;4187621;28;20112;-74
2023/09/11 01:53:00;;;;;;;8.98;2.50;;;;;;;17.60;58.17;94970.03;4164098;28;20469;-74
2023/09/11 01:55:02;;;;;;;8.20;2.70;;;;;;;17.57;58.40;94962.47;4188279;28;20491;-74
2023/09/11 01:57:07;;;;;;;5.53;2.42;;;;;;;17.58;58.17;94961.47;4181222;28;20049;-75
2023/09/11 01:59:09;;;;;;;4.40;2.25;;;;;;;17.60;58.32;94967.38;4169253;28;20432;-75
2023/09/11 02:01:10;;;;;;;4.38;2.13;;;;;;;17.56;58.35;94961.66;4193892;28;20103;-74
2023/09/11 02:03:16;;;;;;;4.97;2.55;;;;;;;17.50;58.73;94972.22;4192233;28;20056;-75
2023/09/11 02:05:18;;;;;;;6.80;2.40;;;;;;;17.37;58.86;94960.53;4175292;28;20056;-75
2023/09/11 02:07:20;;;;;;;6.68;2.35;;;;;;;17.37;58.98;94963.19;4186749;28;20045;-75
2023/09/11 02:09:22;;;;;;;5.22;2.47;;;;;;;17.39;58.89;94963.00;4189096;28;20124;-73
2023/09/11 02:11:24;;;;;;;9.65;2.80;;;;;;;17.31;59.17;94956.00;4159825;28;20116;-74
2023/09/11 02:13:26;;;;;;;6.13;2.30;;;;;;;17.25;59.73;94961.25;4188426;28;20052;-74
2023/09/11 02:15:28;;;;;;;5.30;2.22;;;;;;;17.20;59.48;94967.94;4190700;28;20491;-75
2023/09/11 02:17:30;;;;;;;6.50;2.50;;;;;;;17.24;59.35;94963.09;4192666;28;20398;-74
2023/09/11 02:19:31;;;;;;;7.03;2.35;;;;;;;17.13;59.58;94967.09;4176632;28;20044;-74
2023/09/11 02:21:33;;;;;;;9.73;2.95;;;;;;;17.01;59.90;94963.34;4189957;28;20084;-75
2023/09/11 02:23:35;;;;;;;6.18;2.35;;;;;;;16.88;60.34;94966.69;4187477;28;20462;-75
2023/09/11 02:25:37;;;;;;;5.22;2.70;;;;;;;16.82;60.72;94967.47;4187146;28;20052;-74
2023/09/11 02:27:38;;;;;;;6.20;2.53;;;;;;;16.87;60.58;94964.25;4192222;28;20063;-77
2023/09/11 02:29:40;;;;;;;5.68;2.20;;;;;;;16.93;60.38;94960.84;4173085;28;20415;-73
2023/09/11 02:31:42;;;;;;;7.00;2.72;;;;;;;17.00;60.31;94956.41;4193537;28;20048;-75
2023/09/11 02:33:44;;;;;;;4.25;2.20;;;;;;;17.03;60.27;94968.44;4179950;28;20060;-75
2023/09/11 02:35:52;;;;;;;7.97;2.50;;;;;;;17.05;60.21;94961.94;4195255;28;20476;-76
2023/09/11 02:37:54;;;;;;;10.02;2.58;;;;;;;17.15;59.83;94954.50;4199278;28;20044;-75
2023/09/11 02:39:57;;;;;;;5.55;2.53;;;;;;;17.14;59.91;94949.38;4192341;28;20063;-74
2023/09/11 02:41:58;;;;;;;6.63;2.47;;;;;;;17.04;60.18;94949.72;4174190;28;20049;-74
2023/09/11 02:44:00;;;;;;;8.55;2.78;;;;;;;17.04;60.05;94952.38;4190732;28;20106;-76
2023/09/11 02:46:02;;;;;;;6.03;2.33;;;;;;;17.10;59.92;94954.25;4193433;28;20405;-74
2023/09/11 02:48:04;;;;;;;7.00;2.95;;;;;;;17.18;59.53;94961.22;4195019;28;20052;-75
2023/09/11 02:50:06;;;;;;;5.68;2.40;;;;;;;17.22;59.58;94961.66;4184914;28;20413;-76
2023/09/11 02:52:08;;;;;;;5.55;2.42;;;;;;;17.21;59.50;94958.19;4172574;28;20251;-75
2023/09/11 02:54:10;;;;;;;9.02;5.18;;;;;;;17.21;59.54;94955.56;4185358;28;20461;-74
2023/09/11 02:56:12;;;;;;;6.43;3.08;;;;;;;17.15;59.88;94957.13;4173925;28;20119;-75
2023/09/11 02:58:13;;;;;;;5.32;2.47;;;;;;;17.17;59.78;94954.31;4187138;28;20506;-73
2023/09/11 03:00:15;;;;;;;10.55;3.03;;;;;;;17.16;59.71;94952.66;4180409;28;20088;-75
2023/09/11 03:02:17;;;;;;;8.02;4.22;;;;;;;17.06;60.03;94953.00;4164145;28;20475;-74
2023/09/11 03:04:19;;;;;;;6.32;3.03;;;;;;;17.03;59.99;94952.56;4185126;28;20060;-75
2023/09/11 03:06:21;;;;;;;6.80;2.72;;;;;;;16.93;60.41;94952.91;4184201;28;20063;-75
2023/09/11 03:08:23;;;;;;;7.13;2.92;;;;;;;16.89;60.51;94959.59;4181122;28;20412;-75
2023/09/11 03:10:25;;;;;;;6.80;2.83;;;;;;;16.87;60.04;94964.25;4186398;28;20129;-75
2023/09/11 03:12:28;;;;;;;7.70;2.38;;;;;;;16.75;60.28;94951.50;4186556;28;20048;-75
2023/09/11 03:14:29;;;;;;;7.22;2.13;;;;;;;16.60;60.67;94956.06;4194817;28;20484;-76
2023/09/11 03:16:31;;;;;;;8.73;3.00;;;;;;;16.47;61.34;94951.44;4186898;28;20398;-75
2023/09/11 03:18:33;;;;;;;5.45;2.13;;;;;;;16.48;61.70;94949.66;4185079;28;20315;-75
2023/09/11 03:20:35;;;;;;;6.07;2.80;;;;;;;16.49;61.31;94956.56;4193901;28;20051;-73
2023/09/11 03:22:37;;;;;;;6.13;2.40;;;;;;;16.45;61.54;94955.31;4190623;28;20060;-75
2023/09/11 03:24:38;;;;;;;4.90;2.30;;;;;;;16.51;61.62;94957.19;4182816;28;20492;-74
2023/09/11 03:26:40;;;;;;;6.82;2.40;;;;;;;16.64;61.29;94953.84;4183422;28;20049;-74
2023/09/11 03:28:48;;;;;;;9.05;3.08;;;;;;;16.64;61.07;94953.84;4186805;28;20698;-74
2023/09/11 03:30:49;;;;;;;7.60;3.55;;;;;;;16.67;61.02;94953.47;4168711;28;20065;-76
2023/09/11 03:32:51;;;;;;;8.00;3.30;;;;;;;16.75;60.67;94951.50;4186556;28;20052;-75
2023/09/11 03:34:56;;;;;;;5.55;3.50;;;;;;;16.78;60.32;94948.50;4185074;28;20065;-75
2023/09/11 03:36:58;;;;;;;5.25;3.50;;;;;;;16.77;60.13;94946.84;4193776;28;20132;-76
2023/09/11 03:39:00;;;;;;;6.38;4.10;;;;;;;16.75;60.46;94951.50;4199298;28;20142;-76
2023/09/11 03:41:03;;;;;;;10.32;4.05;;;;;;;16.76;60.44;94955.78;4203613;28;20083;-76
2023/09/11 03:43:05;;;;;;;10.57;4.28;;;;;;;16.74;60.33;94955.16;4187200;28;20075;-73
2023/09/11 03:45:07;;;;;;;7.25;3.90;;;;;;;16.78;60.46;94956.41;4171484;28;20464;-74
2023/09/11 03:47:09;;;;;;;9.57;4.22;;;;;;;16.79;60.47;94951.94;4193486;28;20044;-75
2023/09/11 03:49:10;;;;;;;12.32;4.05;;;;;;;16.79;60.44;94952.75;4184515;28;20045;-75
2023/09/11 03:51:12;;;;;;;9.75;4.40;;;;;;;16.80;60.37;94953.63;4191718;28;20048;-74
2023/09/11 03:53:14;;;;;;;10.05;4.32;;;;;;;16.79;60.30;94955.41;4177541;28;20067;-74
2023/09/11 03:55:16;;;;;;;14.60;4.25;;;;;;;16.77;60.34;94949.47;4173563;28;20055;-75
2023/09/11 03:57:18;;;;;;;7.70;4.22;;;;;;;16.75;60.23;94956.78;4174576;28;20496;-76
2023/09/11 03:59:20;;;;;;;16.17;4.35;;;;;;;16.73;60.27;94955.34;4195974;28;20095;-75
2023/09/11 04:01:22;;;;;;;12.18;4.55;;;;;;;16.71;60.36;94955.56;4196838;28;20102;-75
2023/09/11 04:03:24;;;;;;;5.63;3.60;;;;;;;16.71;60.16;94963.50;4189787;28;20053;-74
2023/09/11 04:05:26;;;;;;;10.40;4.13;;;;;;;16.72;60.43;94965.13;4195125;28;20094;-74
2023/09/11 04:07:28;;;;;;;10.43;3.88;;;;;;;16.71;60.10;94967.94;4191322;28;20045;-75
2023/09/11 04:09:32;;;;;;;9.18;4.13;;;;;;;16.68;60.28;94963.84;4195040;28;20044;-74
2023/09/11 04:11:35;;;;;;;12.63;4.53;;;;;;;16.65;60.50;94966.06;4183072;28;20064;-76
2023/09/11 04:13:37;;;;;;;6.00;3.95;;;;;;;16.63;60.48;94968.06;4185124;28;20072;-76
2023/09/11 04:15:40;;;;;;;9.10;4.30;;;;;;;16.60;60.45;94969.28;4181705;28;20101;-75
2023/09/11 04:17:42;;;;;;;11.57;3.78;;;;;;;16.58;60.43;94966.84;4194378;28;20426;-75
2023/09/11 04:19:44;;;;;;;7.70;3.88;;;;;;;16.61;60.44;94970.13;4155929;28;20053;-74
2023/09/11 04:21:46;;;;;;;10.23;4.15;;;;;;;16.62;60.39;94969.91;4194243;28;20387;-75
2023/09/11 04:23:47;;;;;;;11.32;4.63;;;;;;;16.61;60.37;94972.75;4177037;28;20052;-76
2023/09/11 04:25:53;;;;;;;9.82;4.85;;;;;;;16.63;60.36;94973.34;4194825;28;20048;-77
2023/09/11 04:27:56;;;;;;;9.10;4.28;;;;;;;16.62;60.55;94964.63;4175505;28;20094;-76
2023/09/11 04:29:59;;;;;;;13.02;4.15;;;;;;;16.64;60.58;94962.59;4189102;28;20076;-76
2023/09/11 04:32:02;;;;;;;;;;;;;;;16.63;60.29;94976.84;4186542;28;20052;-76
2023/09/11 04:34:03;;;;;;;7.30;3.90;;;;;;;16.66;60.37;94976.47;4193078;28;19934;-76
2023/09/11 04:36:05;;;;;;;13.27;5.03;;;;;;;16.69;60.07;94969.97;4168779;28;20177;-75
2023/09/11 04:38:07;;;;;;;8.27;4.40;;;;;;;16.76;59.99;94969.03;4189316;28;20041;-79
2023/09/11 04:40:09;;;;;;;9.63;4.30;;;;;;;16.78;59.96;94971.47;4189860;28;20538;-75
2023/09/11 04:42:11;;;;;;;7.78;4.05;;;;;;;16.79;59.84;94973.91;4194200;28;20521;-77
2023/09/11 04:44:13;;;;;;;14.20;4.53;;;;;;;16.68;60.39;94976.28;4192864;28;20067;-77
2023/09/11 04:46:16;;;;;;;10.70;4.30;;;;;;;16.72;60.09;94981.00;4181520;28;20063;-75
2023/09/11 04:48:18;;;;;;;11.65;4.32;;;;;;;16.61;60.33;94983.34;4189695;28;20099;-75
2023/09/11 04:50:20;;;;;;;10.60;4.95;;;;;;;16.59;60.64;94981.69;4189575;28;20045;-78
2023/09/11 04:52:21;;;;;;;10.73;4.45;;;;;;;16.64;60.64;94983.75;4192882;28;20056;-77
2023/09/11 04:54:23;;;;;;;10.00;4.20;;;;;;;16.69;60.29;94984.03;4189402;28;20501;-75
2023/09/11 04:56:26;;;;;;;7.80;3.30;;;;;;;16.81;59.93;94975.59;4187908;28;20053;-77
2023/09/11 04:58:31;;;;;;;10.88;4.00;;;;;;;16.92;59.51;94975.06;4192930;28;20083;-76
2023/09/11 05:00:33;;;;;;;9.63;3.67;;;;;;;16.99;59.35;94973.28;4193443;28;20391;-76
2023/09/11 05:02:36;;;;;;;8.02;3.72;;;;;;;17.00;59.35;94974.94;4175927;28;20437;-75
2023/09/11 05:04:38;;;;;;;7.93;3.65;;;;;;;17.08;59.46;94971.31;4189472;28;20069;-75
2023/09/11 05:06:40;;;;;;;6.20;3.75;;;;;;;17.17;59.33;94976.28;4184863;28;20099;-75
2023/09/11 05:08:42;;;;;;;7.68;3.78;;;;;;;17.24;58.91;94978.16;4190471;28;20044;-75
2023/09/11 05:11:04;;;;;;;10.38;4.10;;;;;;;17.26;59.12;94974.31;4183299;28;20118;-75
2023/09/11 05:13:06;;;;;;;8.95;4.60;;;;;;;17.32;59.38;94972.72;4175238;28;20129;-77
2023/09/11 05:15:08;;;;;;;8.43;4.03;;;;;;;17.45;58.88;94972.81;4181878;28;20485;-78
2023/09/11 05:17:10;;;;;;;6.40;3.72;;;;;;;17.53;57.97;94961.22;4179751;28;20536;-75
2023/09/11 05:19:11;;;;;;;13.60;4.20;;;;;;;17.56;57.81;94959.00;4179206;28;20040;-75
2023/09/11 05:21:13;;;;;;;8.98;3.70;;;;;;;17.63;57.56;94963.53;4188926;28;20056;-75
2023/09/11 05:23:15;;;;;;;10.27;3.75;;;;;;;17.69;57.80;94968.03;4187359;28;20157;-76
2023/09/11 05:25:17;;;;;;;7.95;3.80;;;;;;;17.74;57.59;94965.63;4194110;28;20144;-78
2023/09/11 05:27:20;;;;;;;8.98;4.03;;;;;;;17.79;57.63;94964.03;4190675;28;20053;-74
2023/09/11 05:29:22;;;;;;;;;;;;;;;17.78;57.39;94961.56;4189365;28;20503;-75
2023/09/11 05:31:24;;;;;;;7.55;3.85;;;;;;;17.76;57.81;94961.75;4193818;28;20036;-78
2023/09/11 05:33:26;;;;;;;9.02;3.83;;;;;;;17.84;57.54;94965.28;4195079;28;20479;-74
2023/09/11 05:35:27;;;;;;;10.52;4.20;;;;;;;17.81;57.40;94961.19;4194272;28;20518;-80
2023/09/11 05:37:29;;;;;;;11.50;4.45;;;;;;;17.84;57.40;94960.00;4198066;28;20442;-76
2023/09/11 05:39:32;;;;;;;20.23;4.45;;;;;;;17.76;57.27;94961.75;4196484;28;20048;-78
2023/09/11 05:41:35;;;;;;;10.05;4.50;;;;;;;17.80;57.54;94962.19;4196788;28;20052;-75
2023/09/11 05:43:37;;;;;;;9.20;4.40;;;;;;;17.59;57.91;94966.59;4181722;28;20075;-77
2023/09/11 05:45:39;;;;;;;16.17;5.45;;;;;;;17.12;59.13;94968.13;4184655;28;20146;-78
2023/09/11 05:47:41;;;;;;;16.77;5.30;;;;;;;16.77;60.32;94965.34;4191098;28;20052;-76
2023/09/11 05:49:42;;;;;;;16.52;4.95;;;;;;;16.89;60.27;94971.00;4189757;28;20040;-76
2023/09/11 05:51:44;;;;;;;12.30;5.15;;;;;;;17.08;60.08;94966.88;4190028;28;20459;-76
2023/09/11 05:53:46;;;;;;;19.65;5.60;;;;;;;17.30;59.19;94970.25;4174900;28;20080;-74
2023/09/11 05:55:51;;;;;;;11.73;5.30;;;;;;;17.51;58.81;94971.19;4186998;28;20471;-76
2023/09/11 05:57:52;;;;;;;16.40;5.43;;;;;;;17.58;58.45;94964.13;4191389;28;20135;-76
2023/09/11 05:59:57;;;;;;;12.27;4.90;;;;;;;17.33;59.04;94969.06;4201139;28;20193;-78
2023/09/11 06:01:59;;;;;;;13.18;5.18;;;;;;;17.20;58.99;94962.66;4196685;28;20053;-73
2023/09/11 06:04:01;;;;;;;14.25;5.28;;;;;;;17.22;59.40;94962.47;4191175;28;20476;-75
2023/09/11 06:06:03;;;;;;;12.15;5.07;;;;;;;17.34;59.54;94971.53;4190826;28;20045;-77
2023/09/11 06:08:06;;;;;;;17.60;5.50;;;;;;;17.52;58.56;94968.34;4171846;28;20068;-76
2023/09/11 06:10:10;;;;;;;17.10;5.35;;;;;;;17.69;58.09;94960.91;4191888;28;20044;-76
2023/09/11 06:12:12;;;;;;;;;;;;;;;17.99;57.40;94963.31;4181280;28;20045;-74
2023/09/11 06:14:13;;;;;;;12.40;4.90;;;;;;;18.14;56.68;94963.16;4203895;28;19963;-75
2023/09/11 06:16:15;;;;;;;13.85;5.65;;;;;;;18.31;56.11;94969.72;4196827;28;20091;-76
2023/09/11 06:18:18;;;;;;;18.30;5.55;;;;;;;18.37;56.44;94971.59;4193434;28;21995;-75
2023/09/11 06:20:21;;;;;;;11.20;5.68;;;;;;;18.36;56.46;94969.13;4194398;28;20068;-81
2023/09/11 06:22:23;;;;;;;12.73;5.17;;;;;;;18.49;56.29;94974.47;4195435;28;20500;-74
2023/09/11 06:24:25;;;;;;;11.57;5.68;;;;;;;18.56;55.79;94974.47;4194108;28;20163;-78
2023/09/11 06:26:26;;;;;;;10.00;5.47;;;;;;;18.58;55.76;94977.72;4196945;28;20487;-76
2023/09/11 06:28:28;;;;;;;11.02;5.60;;;;;;;18.69;55.73;94973.66;4201230;28;20045;-77
2023/09/11 06:30:32;;;;;;;10.52;5.28;;;;;;;18.68;55.55;94970.19;4180207;28;20242;-76
2023/09/11 06:32:34;;;;;;;11.15;5.05;;;;;;;18.63;54.97;94977.97;4176229;28;20067;-77
2023/09/11 06:34:36;;;;;;;10.43;5.97;;;;;;;18.64;55.09;94974.28;4184769;28;20482;-78
2023/09/11 06:36:38;;;;;;;11.98;5.25;;;;;;;18.73;54.93;94975.72;4162873;28;20096;-74
2023/09/11 06:38:40;;;;;;;17.15;5.35;;;;;;;18.66;55.20;94980.19;4179915;28;20490;-78
2023/09/11 06:40:43;;;;;;;10.60;5.60;;;;;;;18.63;54.73;94984.09;4199360;28;20125;-77
2023/09/11 06:42:45;;;;;;;11.23;5.68;;;;;;;18.57;55.37;94981.41;4187760;28;20048;-76
2023/09/11 06:44:47;;;;;;;18.13;5.78;;;;;;;18.73;55.15;94978.38;4170671;28;20053;-74
2023/09/11 06:46:52;;;;;;;12.27;4.93;;;;;;;18.71;54.92;94975.09;4177458;28;20150;-75
2023/09/11 06:48:54;;;;;;;11.60;6.00;;;;;;;18.73;55.35;94980.19;4194594;28;20127;-76
2023/09/11 06:50:56;;;;;;;13.00;5.78;;;;;;;18.77;55.08;94976.94;4193827;28;20049;-75
2023/09/11 06:52:59;;;;;;;17.80;5.85;;;;;;;18.90;54.99;94978.00;4179051;28;20358;-74
2023/09/11 06:55:00;;;;;;;11.85;6.15;;;;;;;19.08;54.54;94978.22;4196836;28;20060;-79
2023/09/11 06:57:02;;;;;;;17.80;5.85;;;;;;;19.21;54.20;94975.56;4177750;28;20408;-75
2023/09/11 06:59:04;;;;;;;12.35;5.68;;;;;;;19.36;53.96;94974.50;4194607;28;20447;-78
2023/09/11 07:01:07;;;;;;;12.43;5.60;;;;;;;19.56;53.26;94972.63;4191054;28;20058;-76
2023/09/11 07:03:08;;;;;;;15.90;5.40;;;;;;;19.73;52.70;94974.88;4191365;28;20139;-75
2023/09/11 07:05:10;;;;;;;11.70;5.28;;;;;;;19.56;52.89;94969.16;4187686;28;20053;-76
2023/09/11 07:07:15;;;;;;;12.13;5.57;;;;;;;19.75;52.73;94965.66;4189335;28;20483;-76
2023/09/11 07:09:17;;;;;;;10.40;5.38;;;;;;;19.94;52.66;94971.94;4192140;28;20127;-76
2023/09/11 07:11:19;;;;;;;12.88;5.85;;;;;;;20.00;52.07;94970.28;4168491;28;20045;-76
2023/09/11 07:13:21;;;;;;;14.73;4.75;;;;;;;20.04;52.00;94966.97;4186381;28;20110;-75
2023/09/11 07:15:23;;;;;;;13.15;5.07;;;;;;;20.11;51.68;94966.13;4188548;28;20068;-77
2023/09/11 07:17:25;;;;;;;8.32;4.60;;;;;;;20.22;51.59;94962.81;4189429;28;20053;-76
2023/09/11 07:19:27;;;;;;;10.57;4.47;;;;;;;20.32;51.29;94962.34;4173164;28;20044;-78
2023/09/11 07:21:29;;;;;;;11.27;4.38;;;;;;;20.28;50.92;94959.28;4194244;28;20471;-75
2023/09/11 07:23:33;;;;;;;13.05;3.70;;;;;;;20.19;50.41;94958.72;4196056;28;20041;-76
2023/09/11 07:25:35;;;;;;;10.27;3.42;;;;;;;19.98;50.83;94962.53;4196045;28;20476;-78
2023/09/11 07:27:38;;;;;;;8.70;3.20;;;;;;;20.12;50.96;94962.47;4196444;28;20048;-75
2023/09/11 07:29:40;;;;;;;11.32;3.60;;;;;;;20.33;50.69;94959.50;4194487;28;20040;-73
2023/09/11 07:31:44;;;;;;;9.18;3.85;;;;;;;20.56;50.26;94968.75;4194448;28;20044;-73
2023/09/11 07:33:46;;;;;;;12.65;5.07;;;;;;;20.73;49.28;94958.44;4177069;28;20076;-76
2023/09/11 07:35:48;;;;;;;13.95;3.50;;;;;;;20.65;49.18;94959.53;4195940;28;20053;-78
2023/09/11 07:37:50;;;;;;;9.18;3.47;;;;;;;20.62;48.98;94960.75;4172018;28;20492;-76
2023/09/11 07:39:52;;;;;;;7.55;3.15;;;;;;;20.76;48.64;94958.84;4187493;28;20049;-78
2023/09/11 07:41:55;;;;;;;9.43;3.40;;;;;;;20.83;48.17;94959.59;4193477;28;20056;-75
2023/09/11 07:43:59;;;;;;;9.23;3.40;;;;;;;20.58;48.10;94958.75;4167071;28;20048;-75
2023/09/11 07:46:00;;;;;;;10.95;3.45;;;;;;;20.28;49.17;94961.16;4195163;28;20108;-76
2023/09/11 07:48:02;;;;;;;6.18;3.28;;;;;;;20.36;49.03;94964.38;4186870;28;20090;-76
2023/09/11 07:50:05;;;;;;;7.80;3.10;;;;;;;20.05;49.35;94962.50;4190180;28;20095;-78
2023/09/11 07:52:06;;;;;;;7.35;3.60;;;;;;;20.04;49.60;94961.66;4195282;28;20106;-76
2023/09/11 07:54:09;;;;;;;11.85;3.50;;;;;;;20.16;49.49;94950.38;4195597;28;20106;-77
2023/09/11 07:56:13;;;;;;;8.35;3.75;;;;;;;20.46;48.94;94958.59;4194419;28;20049;-76
2023/09/11 07:58:18;;;;;;;;;;;;;;;20.49;48.08;94952.03;4175102;28;20091;-77
2023/09/11 08:00:21;;;;;;;11.32;3.33;;;;;;;20.68;48.15;94951.09;4190581;28;20428;-75
2023/09/11 08:02:26;;;;;;;8.90;3.33;;;;;;;20.50;48.38;94950.97;4180421;28;20128;-76
2023/09/11 08:04:27;;;;;;;9.98;3.50;;;;;;;20.68;48.33;94950.31;4192656;28;20480;-76
2023/09/11 08:06:29;;;;;;;10.13;4.20;;;;;;;21.01;47.64;94944.69;4194579;28;20094;-77
2023/09/11 08:08:32;;;;;;;9.48;3.42;;;;;;;21.26;46.81;94948.16;4186399;28;20075;-76
2023/09/11 08:10:35;;;;;;;9.05;3.60;;;;;;;21.33;45.95;94949.97;4192254;28;20052;-76
2023/09/11 08:12:37;;;;;;;8.48;3.00;;;;;;;21.18;46.27;94950.28;4194135;28;20095;-78
2023/09/11 08:14:39;;;;;;;7.55;3.22;;;;;;;21.04;46.77;94941.63;4177065;28;20048;-78
2023/09/11 08:16:42;;;;;;;9.38;3.17;;;;;;;21.23;46.29;94948.63;4195430;28;20421;-76
2023/09/11 08:18:45;;;;;;;6.88;3.17;;;;;;;21.26;45.86;94940.19;4184538;28;20499;-78
2023/09/11 08:20:49;;;;;;;10.07;4.05;;;;;;;21.32;45.96;94943.00;4174698;28;20049;-77
2023/09/11 08:22:52;;;;;;;10.85;3.70;;;;;;;21.49;45.83;94936.09;4191891;28;20452;-76
2023/09/11 08:24:53;;;;;;;10.70;3.42;;;;;;;21.64;45.13;94931.22;4194058;28;20049;-77
2023/09/11 08:26:55;;;;;;;7.60;2.95;;;;;;;21.92;44.21;94929.88;4193009;28;20489;-76
2023/09/11 08:28:57;;;;;;;8.48;3.13;;;;;;;22.11;43.52;94927.97;4170710;28;20045;-77
2023/09/11 08:30:59;;;;;;;7.47;3.03;;;;;;;22.16;43.19;94924.66;4171160;28;20144;-77
2023/09/11 08:33:03;;;;;;;9.90;2.95;;;;;;;22.00;43.62;94921.53;4180754;28;20239;-76
2023/09/11 08:35:05;;;;;;;13.60;4.00;;;;;;;21.96;43.88;94925.72;4190258;28;20070;-76
2023/09/11 08:37:08;;;;;;;8.13;3.22;;;;;;;22.21;43.88;94924.78;4194156;28;20063;-77
2023/09/11 08:39:12;;;;;;;9.98;3.42;;;;;;;22.45;43.44;94917.69;4200207;28;20055;-77
2023/09/11 08:41:14;;;;;;;6.68;3.15;;;;;;;22.66;42.51;94916.38;4176190;28;20546;-75
2023/09/11 08:43:16;;;;;;;5.18;3.05;;;;;;;22.80;42.21;94923.13;4187022;28;20045;-78
2023/09/11 08:45:19;;;;;;;7.10;3.80;;;;;;;22.96;42.19;94913.63;4192814;28;20052;-77
2023/09/11 08:47:23;;;;;;;12.68;3.85;;;;;;;23.13;41.30;94918.31;4191113;28;20153;-77
2023/09/11 08:49:30;;;;;;;9.95;3.38;;;;;;;23.24;41.82;94915.63;4170079;28;20365;-77
2023/09/11 08:51:34;;;;;;;13.82;3.80;;;;;;;23.47;41.02;94916.69;4194263;28;20048;-78
2023/09/11 08:53:38;;;;;;;11.38;3.17;;;;;;;23.56;40.93;94920.63;4201076;28;20448;-80
2023/09/11 08:55:41;;;;;;;7.78;3.47;;;;;;;23.71;40.38;94912.91;4210038;28;20079;-77
2023/09/11 08:57:43;;;;;;;9.98;3.30;;;;;;;23.77;39.80;94907.69;4196773;28;20128;-78
2023/09/11 08:59:48;;;;;;;7.32;3.58;;;;;;;23.85;40.44;94915.34;4170447;28;20083;-77
2023/09/11 09:01:51;;;;;;;8.27;3.33;;;;;;;23.70;40.41;94910.47;4191681;28;20067;-78
2023/09/11 09:03:53;;;;;;;8.63;3.70;;;;;;;23.92;39.67;94910.69;4165279;28;20486;-75
2023/09/11 09:05:56;;;;;;;8.27;3.97;;;;;;;24.16;39.81;94906.06;4173125;28;20041;-76
2023/09/11 09:07:59;;;;;;;23.02;3.80;;;;;;;23.91;39.40;94904.50;4178828;28;20087;-74
2023/09/11 09:10:02;;;;;;;17.67;4.10;;;;;;;23.89;40.19;94908.47;4145825;28;20049;-76
2023/09/11 09:12:05;;;;;;;11.23;4.00;;;;;;;24.01;39.96;94906.59;4175565;28;20057;-76
2023/09/11 09:14:08;;;;;;;16.70;4.43;;;;;;;24.08;39.46;94901.91;4164674;28;20539;-79
2023/09/11 09:16:10;;;;;;;9.25;3.85;;;;;;;24.11;39.29;94904.13;4186958;28;20056;-77
2023/09/11 09:18:12;;;;;;;9.20;4.35;;;;;;;24.01;38.95;94893.22;4189244;28;20504;-74
2023/09/11 09:20:14;;;;;;;8.90;3.95;;;;;;;24.05;39.64;94893.56;4163894;28;20052;-77
2023/09/11 09:22:16;;;;;;;8.85;3.78;;;;;;;24.16;39.44;94889.22;4181762;28;20227;-76
2023/09/11 09:24:18;;;;;;;8.85;3.30;;;;;;;24.36;38.76;94889.56;4179964;28;20060;-78
2023/09/11 09:26:21;;;;;;;7.85;3.97;;;;;;;24.34;39.14;94891.66;4191706;28;20052;-76
2023/09/11 09:28:27;;;;;;;;;;;;;;;24.44;38.47;94899.91;4193713;28;20044;-76
2023/09/11 09:30:32;;;;;;;11.75;4.07;;;;;;;24.54;38.62;94888.56;4187457;28;19928;-77
2023/09/11 09:32:34;;;;;;;8.98;4.38;;;;;;;24.50;38.56;94890.09;4176203;28;20492;-76
2023/09/11 09:34:41;;;;;;;8.93;3.70;;;;;;;24.21;38.51;94882.06;4181838;28;20045;-75
2023/09/11 09:36:52;;;;;;;6.82;3.35;;;;;;;24.00;39.18;94882.75;4175960;28;20241;-77